createdAt,value
2018-03-02T00:00:10.334Z,8.60
2018-03-02T00:02:38.465Z,7.15
2018-03-02T00:05:06.621Z,7.82
2018-03-02T00:07:34.756Z,7.18
2018-03-02T00:10:02.967Z,8.35
2018-03-02T00:12:31.070Z,7.72
2018-03-02T00:14:59.223Z,6.72
2018-03-02T00:17:27.359Z,6.43
2018-03-02T00:19:55.522Z,8.52
2018-03-02T00:22:23.662Z,8.35
2018-03-02T00:24:51.827Z,7.93
2018-03-02T00:27:20.731Z,7.45
2018-03-02T00:29:48.889Z,7.03
2018-03-02T00:32:17.796Z,6.55
2018-03-02T00:34:45.954Z,7.37
2018-03-02T00:37:14.862Z,9.35
2018-03-02T00:39:43.021Z,7.87
2018-03-02T00:42:11.927Z,9.32
2018-03-02T00:44:40.109Z,8.55
2018-03-02T00:47:08.258Z,8.82
2018-03-02T00:49:36.417Z,7.25
2018-03-02T00:52:04.554Z,7.93
2018-03-02T00:54:32.718Z,6.78
2018-03-02T00:57:00.865Z,8.90
2018-03-02T00:59:29.030Z,9.10
2018-03-02T01:01:57.170Z,8.32
2018-03-02T01:04:25.333Z,8.15
2018-03-02T01:06:53.473Z,4.80
2018-03-02T01:09:21.626Z,7.10
2018-03-02T01:11:49.756Z,7.75
2018-03-02T01:14:17.922Z,6.93
2018-03-02T01:16:46.056Z,8.88
2018-03-02T01:19:14.222Z,7.72
2018-03-02T01:21:42.351Z,7.32
2018-03-02T01:24:10.512Z,7.65
2018-03-02T01:26:38.653Z,9.65
2018-03-02T01:29:06.805Z,6.85
2018-03-02T01:31:34.942Z,6.90
2018-03-02T01:34:03.112Z,7.50
2018-03-02T01:36:31.246Z,7.28
2018-03-02T01:38:59.416Z,7.95
2018-03-02T01:41:27.553Z,7.50
2018-03-02T01:43:55.695Z,8.85
2018-03-02T01:46:23.858Z,9.05
2018-03-02T01:48:51.995Z,6.72
2018-03-02T01:51:31.912Z,8.02
2018-03-02T01:54:00.051Z,8.23
2018-03-02T01:56:28.218Z,7.60
2018-03-02T01:58:56.352Z,7.47
2018-03-02T02:01:24.518Z,5.68
2018-03-02T02:03:52.645Z,8.15
2018-03-02T02:06:20.802Z,7.20
2018-03-02T02:08:48.937Z,7.90
2018-03-02T02:11:17.093Z,5.87
2018-03-02T02:13:45.229Z,8.13
2018-03-02T02:16:13.399Z,6.47
2018-03-02T02:18:41.536Z,8.02
2018-03-02T02:21:09.702Z,5.95
2018-03-02T02:23:37.837Z,4.95
2018-03-02T02:26:05.998Z,6.57
2018-03-02T02:28:34.124Z,6.15
2018-03-02T02:31:02.287Z,7.10
2018-03-02T02:33:30.419Z,7.30
2018-03-02T02:35:58.584Z,7.85
2018-03-02T02:38:26.723Z,8.10
2018-03-02T02:40:54.885Z,8.27
2018-03-02T02:43:23.027Z,8.05
2018-03-02T02:45:51.187Z,5.32
2018-03-02T02:48:19.332Z,5.22
2018-03-02T02:50:48.267Z,7.55
2018-03-02T02:53:16.404Z,8.15
2018-03-02T02:55:45.337Z,6.87
2018-03-02T02:58:13.469Z,6.05
2018-03-02T03:00:42.396Z,8.52
2018-03-02T03:03:10.538Z,7.45
2018-03-02T03:05:39.477Z,9.30
2018-03-02T03:08:07.614Z,5.75
2018-03-02T03:10:35.770Z,10.57
2018-03-02T03:13:03.910Z,9.80
2018-03-02T03:15:32.078Z,10.55
2018-03-02T03:18:00.222Z,12.23
2018-03-02T03:20:28.390Z,11.23
2018-03-02T03:22:56.526Z,9.30
2018-03-02T03:25:24.694Z,11.38
2018-03-02T03:27:52.837Z,9.13
2018-03-02T03:30:21.002Z,9.00
2018-03-02T03:32:49.146Z,10.27
2018-03-02T03:35:17.314Z,8.23
2018-03-02T03:37:46.215Z,9.50
2018-03-02T03:40:14.385Z,10.85
2018-03-02T03:42:42.526Z,11.02
2018-03-02T03:45:11.481Z,10.35
2018-03-02T03:47:39.624Z,11.20
2018-03-02T03:50:07.794Z,10.15
2018-03-02T03:52:35.921Z,9.52
2018-03-02T03:55:04.090Z,9.35
2018-03-02T03:57:32.234Z,10.23
2018-03-02T04:00:00.394Z,9.48
2018-03-02T04:02:28.532Z,7.20
2018-03-02T04:04:56.696Z,8.73
2018-03-02T04:07:24.834Z,8.93
2018-03-02T04:09:53.011Z,8.82
2018-03-02T04:12:21.140Z,8.50
2018-03-02T04:14:50.092Z,10.07
2018-03-02T04:17:18.233Z,8.95
2018-03-02T04:19:46.370Z,8.65
2018-03-02T04:22:14.533Z,6.50
2018-03-02T04:24:42.677Z,10.13
2018-03-02T04:27:10.833Z,9.93
2018-03-02T04:29:38.983Z,10.85
2018-03-02T04:32:07.908Z,10.88
2018-03-02T04:34:36.050Z,11.07
2018-03-02T04:37:04.217Z,10.63
2018-03-02T04:39:32.378Z,9.05
2018-03-02T04:42:01.274Z,7.95
2018-03-02T04:44:29.438Z,8.73
2018-03-02T04:46:57.574Z,7.40
2018-03-02T04:49:25.735Z,7.43
2018-03-02T04:51:53.888Z,8.77
2018-03-02T04:54:22.052Z,9.40
2018-03-02T04:56:50.959Z,9.48
2018-03-02T04:59:19.128Z,11.12
2018-03-02T05:01:47.271Z,11.15
2018-03-02T05:04:15.440Z,11.02
2018-03-02T05:06:43.578Z,10.90
2018-03-02T05:09:11.739Z,9.10
2018-03-02T05:11:39.868Z,8.05
2018-03-02T05:14:08.037Z,10.43
2018-03-02T05:16:36.183Z,8.13
2018-03-02T05:19:04.345Z,9.05
2018-03-02T05:21:32.490Z,8.80
2018-03-02T05:24:00.663Z,10.40
2018-03-02T05:26:28.801Z,8.95
2018-03-02T05:28:56.992Z,10.60
2018-03-02T05:31:25.214Z,10.98
2018-03-02T05:33:53.341Z,7.90
2018-03-02T05:36:22.274Z,10.20
2018-03-02T05:38:50.415Z,11.55
2018-03-02T05:41:18.569Z,7.43
2018-03-02T05:43:46.706Z,9.25
2018-03-02T05:46:14.861Z,9.88
2018-03-02T05:48:43.004Z,8.43
2018-03-02T05:51:11.924Z,8.32
2018-03-02T05:53:40.067Z,10.48
2018-03-02T05:56:08.991Z,9.98
2018-03-02T05:58:37.132Z,9.52
2018-03-02T06:01:06.065Z,7.30
2018-03-02T06:03:34.203Z,7.07
2018-03-02T06:06:02.402Z,7.97
2018-03-02T06:08:30.544Z,7.53
2018-03-02T06:10:58.705Z,8.38
2018-03-02T06:13:27.653Z,8.82
2018-03-02T06:15:55.796Z,9.63
2018-03-02T06:18:23.943Z,9.43
2018-03-02T06:20:52.110Z,11.00
2018-03-02T06:23:20.272Z,8.00
2018-03-02T06:25:48.433Z,11.00
2018-03-02T06:28:16.575Z,8.48
2018-03-02T06:30:44.741Z,8.82
2018-03-02T06:33:12.887Z,10.27
2018-03-02T06:35:41.810Z,9.32
2018-03-02T06:38:09.951Z,11.57
2018-03-02T06:40:38.885Z,10.25
2018-03-02T06:43:07.029Z,9.43
2018-03-02T06:45:35.968Z,9.60
2018-03-02T06:48:04.114Z,8.90
2018-03-02T06:50:32.254Z,11.18
2018-03-02T06:53:00.429Z,11.93
2018-03-02T06:55:28.582Z,10.85
2018-03-02T06:57:56.740Z,10.55
2018-03-02T07:00:24.881Z,11.80
2018-03-02T07:02:53.053Z,12.10
2018-03-02T07:05:21.192Z,12.70
2018-03-02T07:07:50.129Z,13.18
2018-03-02T07:10:18.287Z,10.20
2018-03-02T07:12:46.447Z,13.30
2018-03-02T07:15:14.580Z,12.52
2018-03-02T07:17:42.749Z,14.23
2018-03-02T07:20:10.890Z,12.43
2018-03-02T07:22:39.082Z,13.23
2018-03-02T07:25:07.224Z,12.90
2018-03-02T07:27:35.441Z,11.60
2018-03-02T07:30:03.559Z,12.07
2018-03-02T07:32:31.728Z,13.77
2018-03-02T07:34:59.866Z,13.55
2018-03-02T07:37:28.033Z,13.30
2018-03-02T07:39:56.179Z,13.68
2018-03-02T07:42:24.395Z,17.55
2018-03-02T07:44:52.538Z,14.68
2018-03-02T07:47:20.697Z,14.90
2018-03-02T07:49:48.840Z,12.95
2018-03-02T07:52:17.017Z,16.50
2018-03-02T07:54:45.919Z,15.57
2018-03-02T07:57:14.079Z,16.12
2018-03-02T07:59:42.984Z,15.70
2018-03-02T08:02:11.177Z,14.45
2018-03-02T08:04:39.318Z,15.27
2018-03-02T08:07:07.479Z,14.73
2018-03-02T08:09:35.611Z,15.30
2018-03-02T08:12:03.765Z,16.58
2018-03-02T08:14:31.909Z,15.75
2018-03-02T08:17:00.844Z,13.50
2018-03-02T08:19:28.983Z,13.80
2018-03-02T08:21:57.139Z,17.60
2018-03-02T08:24:25.337Z,15.32
2018-03-02T08:26:53.504Z,15.45
2018-03-02T08:29:21.660Z,16.95
2018-03-02T08:31:49.793Z,16.23
2018-03-02T08:34:17.961Z,18.05
2018-03-02T08:36:46.102Z,18.95
2018-03-02T08:39:15.023Z,16.80
2018-03-02T08:41:43.189Z,17.23
2018-03-02T08:44:11.356Z,17.20
2018-03-02T08:46:39.489Z,19.05
2018-03-02T08:49:07.645Z,18.30
2018-03-02T08:51:35.795Z,15.00
2018-03-02T08:54:03.954Z,17.30
2018-03-02T08:56:32.086Z,18.98
2018-03-02T08:59:00.241Z,16.92
2018-03-02T09:01:28.380Z,16.98
2018-03-02T09:03:56.538Z,18.02
2018-03-02T09:06:24.678Z,14.87
2018-03-02T09:08:52.834Z,16.10
2018-03-02T09:11:20.968Z,16.25
2018-03-02T09:13:49.135Z,18.50
2018-03-02T09:16:17.275Z,19.70
2018-03-02T09:18:45.428Z,19.35
2018-03-02T09:21:13.562Z,20.15
2018-03-02T09:23:41.701Z,18.65
2018-03-02T09:26:09.862Z,17.80
2018-03-02T09:28:38.001Z,18.25
2018-03-02T09:31:06.161Z,17.08
2018-03-02T09:33:34.304Z,17.67
2018-03-02T09:36:02.470Z,19.73
2018-03-02T09:38:31.370Z,16.67
2018-03-02T09:40:59.525Z,19.23
2018-03-02T09:43:27.660Z,16.65
2018-03-02T09:45:55.818Z,17.48
2018-03-02T09:48:23.953Z,20.40
2018-03-02T09:50:52.114Z,42.22
2018-03-02T09:53:20.273Z,24.67
2018-03-02T09:55:48.433Z,16.30
2018-03-02T09:58:16.569Z,14.55
2018-03-02T10:00:44.731Z,17.55
2018-03-02T10:03:13.980Z,13.62
2018-03-02T10:05:42.146Z,14.20
2018-03-02T10:08:10.313Z,14.68
2018-03-02T10:10:38.473Z,16.08
2018-03-02T10:13:06.610Z,14.40
2018-03-02T10:15:35.536Z,14.18
2018-03-02T10:18:03.726Z,15.40
2018-03-02T10:20:32.018Z,13.70
2018-03-02T10:23:00.198Z,14.65
2018-03-02T10:25:28.374Z,16.35
2018-03-02T10:27:56.537Z,14.10
2018-03-02T10:30:24.712Z,12.75
2018-03-02T10:32:52.850Z,18.23
2018-03-02T10:35:20.998Z,15.43
2018-03-02T10:37:49.152Z,14.57
2018-03-02T10:40:17.305Z,13.57
2018-03-02T10:42:45.498Z,13.30
2018-03-02T10:45:13.643Z,14.60
2018-03-02T10:47:41.802Z,12.18
2018-03-02T10:50:09.937Z,14.07
2018-03-02T10:52:38.879Z,11.55
2018-03-02T10:55:07.028Z,12.77
2018-03-02T10:57:35.196Z,14.93
2018-03-02T11:00:03.347Z,12.23
2018-03-02T11:02:32.281Z,14.77
2018-03-02T11:05:06.122Z,18.08
2018-03-02T11:07:34.293Z,14.32
2018-03-02T11:10:02.481Z,16.35
2018-03-02T11:12:30.641Z,17.17
2018-03-02T11:14:58.782Z,16.42
2018-03-02T11:17:26.947Z,15.73
2018-03-02T11:19:55.081Z,16.85
2018-03-02T11:22:23.241Z,13.68
2018-03-02T11:24:51.391Z,16.00
2018-03-02T11:27:19.584Z,13.45
2018-03-02T11:29:47.721Z,14.95
2018-03-02T11:32:15.890Z,15.32
2018-03-02T11:34:44.034Z,13.88
2018-03-02T11:37:12.962Z,14.85
2018-03-02T11:39:41.101Z,14.18
2018-03-02T11:42:10.412Z,14.80
2018-03-02T11:44:38.545Z,14.95
2018-03-02T11:47:06.721Z,15.05
2018-03-02T11:49:34.877Z,15.32
2018-03-02T11:52:03.047Z,15.18
2018-03-02T11:54:31.209Z,13.30
2018-03-02T11:56:59.347Z,15.35
2018-03-02T11:59:27.501Z,13.43
2018-03-02T12:01:55.676Z,14.52
2018-03-02T12:04:23.834Z,10.10
2018-03-02T12:06:51.975Z,11.25
2018-03-02T12:09:20.130Z,10.35
2018-03-02T12:11:48.270Z,12.88
2018-03-02T12:14:16.428Z,13.40
2018-03-02T12:16:44.578Z,14.52
2018-03-02T12:19:12.754Z,13.88
2018-03-02T12:21:40.885Z,9.63
2018-03-02T12:24:09.041Z,11.50
2018-03-02T12:26:37.188Z,11.77
2018-03-02T12:29:05.349Z,11.43
2018-03-02T12:31:33.502Z,13.25
2018-03-02T12:34:01.662Z,12.20
2018-03-02T12:36:29.797Z,12.88
2018-03-02T12:38:57.956Z,11.77
2018-03-02T12:41:26.096Z,11.43
2018-03-02T12:43:54.321Z,13.10
2018-03-02T12:46:22.452Z,13.88
2018-03-02T12:48:50.618Z,11.95
2018-03-02T12:51:18.755Z,13.25
2018-03-02T12:53:46.914Z,14.27
2018-03-02T12:56:15.042Z,13.15
2018-03-02T12:58:43.212Z,13.90
2018-03-02T13:01:11.349Z,11.57
2018-03-02T13:03:39.520Z,10.85
2018-03-02T13:06:08.423Z,13.10
2018-03-02T13:08:36.558Z,12.25
2018-03-02T13:11:04.721Z,12.25
2018-03-02T13:13:32.855Z,13.73
2018-03-02T13:16:01.016Z,12.95
2018-03-02T13:18:40.711Z,12.63
2018-03-02T13:21:08.861Z,13.15
2018-03-02T13:23:37.012Z,13.43
2018-03-02T13:26:05.169Z,12.32
2018-03-02T13:28:45.166Z,11.32
2018-03-02T13:31:13.341Z,14.95
2018-03-02T13:36:43.301Z,12.30
2018-03-02T13:39:11.433Z,11.60
2018-03-02T13:41:51.432Z,13.50
2018-03-02T13:44:19.571Z,15.02
2018-03-02T13:46:47.725Z,13.25
2018-03-02T13:49:27.667Z,11.85
2018-03-02T13:51:55.854Z,11.52
2018-03-02T13:54:23.990Z,12.15
2018-03-02T13:57:03.730Z,12.82
2018-03-02T13:59:31.870Z,8.73
2018-03-02T14:02:00.026Z,11.25
2018-03-02T14:04:39.857Z,11.85
2018-03-02T14:07:08.010Z,8.75
2018-03-02T14:09:36.907Z,13.43
2018-03-02T14:12:05.844Z,13.02
2018-03-02T14:14:33.990Z,12.35
2018-03-02T14:17:02.162Z,12.55
2018-03-02T14:19:30.307Z,12.40
2018-03-02T14:21:58.485Z,11.52
2018-03-02T14:24:27.394Z,12.18
2018-03-02T14:26:55.569Z,12.23
2018-03-02T14:29:23.717Z,11.18
2018-03-02T14:31:51.868Z,11.85
2018-03-02T14:34:20.024Z,10.43
2018-03-02T14:36:48.180Z,12.57
2018-03-02T14:39:16.416Z,11.02
2018-03-02T14:41:44.589Z,11.63
2018-03-02T14:44:13.498Z,12.50
2018-03-02T14:46:41.658Z,11.00
2018-03-02T14:49:10.561Z,11.05
2018-03-02T14:51:38.734Z,12.00
2018-03-02T14:54:07.773Z,10.68
2018-03-02T14:56:37.472Z,12.20
2018-03-02T14:59:07.989Z,10.80
2018-03-02T15:01:36.236Z,11.30
2018-03-02T15:04:04.482Z,12.18
2018-03-02T15:06:34.123Z,13.93
2018-03-02T15:09:02.392Z,13.73
2018-03-02T15:11:31.521Z,12.40
2018-03-02T15:13:59.711Z,10.80
2018-03-02T15:16:27.861Z,12.37
2018-03-02T15:18:56.083Z,12.37
2018-03-02T15:21:24.307Z,12.90
2018-03-02T15:23:52.491Z,11.77
2018-03-02T15:26:20.775Z,15.55
2018-03-02T15:28:48.958Z,9.70
2018-03-02T15:31:17.132Z,10.70
2018-03-02T15:33:45.273Z,10.75
2018-03-02T15:36:13.429Z,9.38
2018-03-02T15:38:41.610Z,10.20
2018-03-02T15:41:10.557Z,12.20
2018-03-02T15:43:38.899Z,11.30
2018-03-02T15:46:07.061Z,10.88
2018-03-02T15:48:35.378Z,11.32
2018-03-02T15:51:03.569Z,14.18
2018-03-02T15:53:31.753Z,11.93
2018-03-02T15:55:59.954Z,10.68
2018-03-02T15:58:28.926Z,11.75
2018-03-02T16:00:57.071Z,11.55
2018-03-02T16:03:25.293Z,12.48
2018-03-02T16:05:53.457Z,10.63
2018-03-02T16:08:22.370Z,12.32
2018-03-02T16:10:50.544Z,11.73
2018-03-02T16:13:18.694Z,10.40
2018-03-02T16:15:46.858Z,9.77
2018-03-02T16:18:15.006Z,10.52
2018-03-02T16:20:43.160Z,11.43
2018-03-02T16:23:11.308Z,10.60
2018-03-02T16:25:39.482Z,11.80
2018-03-02T16:28:07.659Z,12.00
2018-03-02T16:30:35.836Z,11.20
2018-03-02T16:33:03.988Z,11.12
2018-03-02T16:35:32.185Z,13.68
2018-03-02T16:38:00.372Z,11.38
2018-03-02T16:40:28.578Z,10.52
2018-03-02T16:42:56.758Z,13.73
2018-03-02T16:45:24.949Z,13.43
2018-03-02T16:47:53.163Z,14.15
2018-03-02T16:50:21.394Z,12.80
2018-03-02T16:52:49.702Z,12.23
2018-03-02T16:55:17.974Z,12.50
2018-03-02T16:57:46.926Z,10.70
2018-03-02T17:00:15.183Z,12.75
2018-03-02T17:02:43.336Z,12.75
2018-03-02T17:05:11.661Z,11.27
2018-03-02T17:07:39.817Z,11.90
2018-03-02T17:10:08.004Z,10.95
2018-03-02T17:12:36.185Z,6.87
2018-03-02T17:15:04.330Z,14.75
2018-03-02T17:17:32.510Z,13.70
2018-03-02T17:20:00.726Z,14.27
2018-03-02T17:22:28.945Z,13.25
2018-03-02T17:24:57.150Z,13.18
2018-03-02T17:27:25.439Z,13.60
2018-03-02T17:29:53.637Z,10.85
2018-03-02T17:32:22.250Z,14.40
2018-03-02T17:34:50.493Z,15.48
2018-03-02T17:37:19.078Z,13.10
2018-03-02T17:39:47.389Z,15.43
2018-03-02T17:42:15.650Z,13.32
2018-03-02T17:44:43.908Z,13.50
2018-03-02T17:47:12.140Z,12.50
2018-03-02T17:49:40.361Z,13.23
2018-03-02T17:52:08.588Z,14.48
2018-03-02T17:54:36.724Z,13.13
2018-03-02T17:57:04.956Z,12.55
2018-03-02T17:59:34.930Z,14.75
2018-03-02T18:02:04.195Z,12.68
2018-03-02T18:04:32.468Z,9.95
2018-03-02T18:07:00.687Z,15.00
2018-03-02T18:09:28.978Z,14.90
2018-03-02T18:11:57.162Z,14.27
2018-03-02T18:14:25.727Z,11.77
2018-03-02T18:16:54.454Z,13.75
2018-03-02T18:19:22.738Z,12.43
2018-03-02T18:21:51.631Z,13.23
2018-03-02T18:24:20.086Z,14.70
2018-03-02T18:26:48.348Z,14.50
2018-03-02T18:29:17.499Z,14.68
2018-03-02T18:31:47.351Z,15.43
2018-03-02T18:34:17.715Z,13.73
2018-03-02T18:36:47.644Z,12.32
2018-03-02T18:39:17.480Z,15.43
2018-03-02T18:41:46.360Z,13.62
2018-03-02T18:44:15.356Z,15.15
2018-03-02T18:46:43.955Z,15.73
2018-03-02T18:49:12.244Z,13.70
2018-03-02T18:51:41.025Z,13.93
2018-03-02T18:54:09.404Z,14.50
2018-03-02T18:56:38.126Z,13.35
2018-03-02T18:59:06.345Z,13.88
2018-03-02T19:01:34.569Z,12.52
2018-03-02T19:04:02.849Z,12.37
2018-03-02T19:06:31.368Z,12.60
2018-03-02T19:08:59.670Z,15.85
2018-03-02T19:11:27.837Z,12.80
2018-03-02T19:13:56.034Z,14.87
2018-03-02T19:16:24.172Z,15.73
2018-03-02T19:18:52.335Z,12.65
2018-03-02T19:21:20.483Z,16.95
2018-03-02T19:23:48.652Z,14.63
2018-03-02T19:26:16.860Z,13.27
2018-03-02T19:28:45.043Z,16.00
2018-03-02T19:31:13.206Z,15.35
2018-03-02T19:33:43.011Z,13.93
2018-03-02T19:36:11.382Z,15.13
2018-03-02T19:38:39.612Z,15.13
2018-03-02T19:41:09.219Z,14.07
2018-03-02T19:43:39.448Z,13.20
2018-03-02T19:46:08.804Z,13.60
2018-03-02T19:48:39.428Z,14.20
2018-03-02T19:51:07.671Z,14.90
2018-03-02T19:53:36.182Z,14.48
2018-03-02T19:56:04.523Z,13.88
2018-03-02T19:58:32.719Z,15.20
2018-03-02T20:01:01.128Z,13.73
2018-03-02T20:03:29.310Z,14.48
2018-03-02T20:05:57.526Z,13.77
2018-03-02T20:08:26.186Z,15.40
2018-03-02T20:10:54.362Z,14.82
2018-03-02T20:13:22.805Z,14.90
2018-03-02T20:15:51.057Z,15.68
2018-03-02T20:18:19.217Z,15.50
2018-03-02T20:20:47.442Z,14.27
2018-03-02T20:23:15.668Z,16.20
2018-03-02T20:25:43.842Z,15.02
2018-03-02T20:28:11.981Z,14.27
2018-03-02T20:30:40.145Z,14.63
2018-03-02T20:33:08.285Z,12.52
2018-03-02T20:35:36.439Z,16.60
2018-03-02T20:38:04.589Z,14.95
2018-03-02T20:40:32.746Z,14.90
2018-03-02T20:43:00.902Z,13.80
2018-03-02T20:45:29.091Z,15.65
2018-03-02T20:47:57.301Z,15.15
2018-03-02T20:50:25.477Z,16.50
2018-03-02T20:52:53.613Z,13.40
2018-03-02T20:55:22.361Z,14.05
2018-03-02T20:57:50.522Z,15.02
2018-03-02T21:00:18.661Z,14.77
2018-03-02T21:02:46.828Z,15.40
2018-03-02T21:05:15.129Z,14.60
2018-03-02T21:07:43.291Z,15.70
2018-03-02T21:10:11.426Z,13.50
2018-03-02T21:12:40.389Z,15.70
2018-03-02T21:15:08.609Z,14.43
2018-03-02T21:17:36.823Z,16.77
2018-03-02T21:20:04.961Z,14.38
2018-03-02T21:22:33.275Z,13.48
2018-03-02T21:25:01.411Z,14.82
2018-03-02T21:27:29.620Z,15.95
2018-03-02T21:29:58.532Z,14.60
2018-03-02T21:32:26.942Z,15.85
2018-03-02T21:34:55.077Z,14.20
2018-03-02T21:37:23.254Z,13.15
2018-03-02T21:39:51.385Z,12.55
2018-03-02T21:42:19.570Z,14.65
2018-03-02T21:44:47.719Z,14.63
2018-03-02T21:47:15.907Z,13.95
2018-03-02T21:49:44.053Z,15.43
2018-03-02T21:52:12.242Z,14.90
2018-03-02T21:54:40.413Z,13.38
2018-03-02T21:57:08.592Z,18.23
2018-03-02T21:59:36.746Z,13.98
2018-03-02T22:02:04.888Z,13.60
2018-03-02T22:04:33.066Z,15.60
2018-03-02T22:07:01.205Z,14.25
2018-03-02T22:09:29.393Z,11.43
2018-03-02T22:11:57.546Z,13.52
2018-03-02T22:14:25.725Z,14.87
2018-03-02T22:16:53.911Z,14.50
2018-03-02T22:19:22.081Z,13.43
2018-03-02T22:21:50.244Z,13.73
2018-03-02T22:24:18.928Z,15.30
2018-03-02T22:26:47.065Z,15.05
2018-03-02T22:29:15.223Z,13.65
2018-03-02T22:31:43.366Z,12.93
2018-03-02T22:34:11.538Z,12.57
2018-03-02T22:36:39.673Z,15.25
2018-03-02T22:39:07.846Z,14.35
2018-03-02T22:41:36.006Z,17.20
2018-03-02T22:44:04.169Z,15.25
2018-03-02T22:46:32.314Z,13.60
2018-03-02T22:49:00.486Z,11.90
2018-03-02T22:51:28.654Z,15.48
2018-03-02T22:53:56.814Z,15.60
2018-03-02T22:56:24.946Z,14.13
2018-03-02T22:58:53.882Z,14.98
2018-03-02T23:01:22.026Z,13.88
2018-03-02T23:03:50.193Z,14.70
2018-03-02T23:06:18.331Z,12.70
2018-03-02T23:08:46.498Z,12.68
2018-03-02T23:11:14.643Z,15.05
2018-03-02T23:13:42.820Z,15.05
2018-03-02T23:16:10.962Z,12.40
2018-03-02T23:18:39.103Z,14.27
2018-03-02T23:21:07.263Z,13.27
2018-03-02T23:23:35.403Z,13.32
2018-03-02T23:26:03.560Z,15.93
2018-03-02T23:28:31.706Z,13.73
2018-03-02T23:30:59.882Z,13.20
2018-03-02T23:33:28.025Z,14.20
2018-03-02T23:35:56.190Z,13.30
2018-03-02T23:38:24.328Z,12.37
2018-03-02T23:40:52.490Z,13.57
2018-03-02T23:43:20.642Z,13.90
2018-03-02T23:45:49.023Z,14.65
2018-03-02T23:48:17.160Z,16.25
2018-03-02T23:50:45.325Z,12.07
2018-03-02T23:53:13.465Z,12.13
2018-03-02T23:55:41.634Z,14.57
2018-03-02T23:58:09.790Z,13.85
